createdAt,value
2018-05-07T00:01:04.474Z,12.34
2018-05-07T00:02:10.768Z,12.26
2018-05-07T00:03:17.075Z,12.27
2018-05-07T00:04:23.378Z,12.24
2018-05-07T00:05:30.662Z,12.20
2018-05-07T00:06:35.967Z,12.12
2018-05-07T00:07:43.285Z,12.01
2018-05-07T00:08:48.578Z,11.88
2018-05-07T00:09:54.879Z,11.89
2018-05-07T00:11:01.197Z,11.87
2018-05-07T00:12:07.487Z,11.83
2018-05-07T00:13:13.804Z,11.86
2018-05-07T00:14:20.096Z,11.92
2018-05-07T00:15:26.392Z,11.92
2018-05-07T00:16:32.674Z,11.83
2018-05-07T00:17:39.003Z,11.81
2018-05-07T00:18:45.270Z,11.77
2018-05-07T00:19:51.572Z,11.81
2018-05-07T00:20:57.857Z,11.78
2018-05-07T00:22:04.169Z,11.71
2018-05-07T00:23:10.478Z,11.68
2018-05-07T00:24:16.747Z,11.67
2018-05-07T00:25:23.055Z,11.62
2018-05-07T00:26:29.408Z,11.55
2018-05-07T00:27:35.620Z,11.49
2018-05-07T00:28:41.940Z,11.30
2018-05-07T00:29:48.225Z,11.11
2018-05-07T00:30:54.515Z,10.90
2018-05-07T00:32:00.784Z,10.71
2018-05-07T00:33:07.138Z,10.51
2018-05-07T00:34:13.393Z,10.37
2018-05-07T00:35:20.626Z,10.28
2018-05-07T00:36:25.931Z,10.19
2018-05-07T00:37:32.205Z,10.09
2018-05-07T00:38:38.495Z,10.03
2018-05-07T00:39:44.763Z,9.97
2018-05-07T00:40:51.039Z,9.88
2018-05-07T00:41:57.309Z,9.84
2018-05-07T00:43:03.576Z,10.04
2018-05-07T00:44:09.860Z,10.14
2018-05-07T00:45:16.114Z,10.09
2018-05-07T00:46:22.382Z,10.05
2018-05-07T00:47:28.660Z,9.93
2018-05-07T00:48:34.917Z,9.84
2018-05-07T00:49:41.201Z,9.76
2018-05-07T00:50:47.441Z,9.66
2018-05-07T00:51:53.708Z,9.58
2018-05-07T00:52:59.961Z,9.50
2018-05-07T00:54:06.244Z,9.41
2018-05-07T00:55:12.482Z,9.35
2018-05-07T00:56:18.728Z,9.30
2018-05-07T00:57:24.981Z,9.25
2018-05-07T00:58:31.236Z,9.29
2018-05-07T00:59:37.521Z,9.37
2018-05-07T01:00:43.735Z,9.50
2018-05-07T01:01:49.988Z,9.56
2018-05-07T01:02:56.234Z,9.52
2018-05-07T01:04:02.498Z,9.62
2018-05-07T01:05:08.758Z,9.63
2018-05-07T01:06:14.993Z,9.53
2018-05-07T01:07:21.236Z,9.42
2018-05-07T01:08:27.475Z,9.31
2018-05-07T01:09:33.751Z,9.20
2018-05-07T01:10:39.982Z,9.11
2018-05-07T01:11:47.199Z,9.02
2018-05-07T01:12:52.511Z,8.97
2018-05-07T01:13:58.703Z,8.98
2018-05-07T01:15:05.290Z,9.00
2018-05-07T01:16:11.174Z,8.94
2018-05-07T01:17:17.414Z,8.88
2018-05-07T01:18:23.683Z,8.92
2018-05-07T01:19:29.975Z,9.12
2018-05-07T01:20:36.170Z,9.38
2018-05-07T01:21:42.357Z,9.69
2018-05-07T01:22:48.596Z,9.73
2018-05-07T01:23:54.824Z,9.66
2018-05-07T01:25:01.109Z,9.60
2018-05-07T01:26:07.391Z,9.43
2018-05-07T01:27:13.546Z,9.24
2018-05-07T01:28:19.771Z,9.11
2018-05-07T01:29:26.014Z,8.97
2018-05-07T01:30:32.263Z,8.86
2018-05-07T01:31:38.458Z,8.77
2018-05-07T01:32:44.755Z,8.71
2018-05-07T01:33:50.928Z,8.65
2018-05-07T01:34:57.155Z,8.61
2018-05-07T01:36:03.426Z,8.66
2018-05-07T01:37:09.626Z,8.63
2018-05-07T01:38:15.841Z,8.57
2018-05-07T01:39:22.076Z,8.73
2018-05-07T01:40:28.313Z,8.86
2018-05-07T01:41:34.567Z,8.86
2018-05-07T01:42:40.748Z,8.80
2018-05-07T01:43:47.036Z,8.83
2018-05-07T01:44:53.222Z,8.92
2018-05-07T01:45:59.470Z,9.18
2018-05-07T01:47:05.643Z,9.15
2018-05-07T01:48:11.860Z,8.98
2018-05-07T01:49:18.093Z,8.90
2018-05-07T01:50:24.306Z,8.88
2018-05-07T01:51:30.653Z,8.88
2018-05-07T01:52:36.752Z,8.89
2018-05-07T01:53:42.981Z,8.84
2018-05-07T01:54:49.207Z,8.77
2018-05-07T01:55:55.427Z,8.94
2018-05-07T01:57:01.815Z,9.31
2018-05-07T01:58:07.860Z,9.52
2018-05-07T01:59:14.081Z,9.82
2018-05-07T02:00:20.290Z,10.03
2018-05-07T02:01:26.533Z,10.15
2018-05-07T02:02:32.751Z,10.27
2018-05-07T02:03:38.969Z,10.39
2018-05-07T02:04:45.207Z,10.46
2018-05-07T02:05:51.436Z,10.47
2018-05-07T02:06:57.687Z,10.50
2018-05-07T02:08:03.902Z,10.47
2018-05-07T02:09:10.118Z,10.41
2018-05-07T02:10:16.344Z,10.39
2018-05-07T02:11:22.581Z,10.41
2018-05-07T02:12:28.836Z,10.38
2018-05-07T02:13:35.055Z,10.37
2018-05-07T02:14:41.394Z,10.38
2018-05-07T02:15:47.523Z,10.41
2018-05-07T02:16:53.777Z,10.48
2018-05-07T02:17:59.991Z,10.53
2018-05-07T02:19:06.235Z,10.52
2018-05-07T02:20:12.462Z,10.53
2018-05-07T02:21:18.690Z,10.52
2018-05-07T02:22:24.974Z,10.48
2018-05-07T02:23:31.197Z,10.53
2018-05-07T02:24:37.408Z,10.63
2018-05-07T02:25:43.661Z,10.62
2018-05-07T02:26:49.911Z,10.55
2018-05-07T02:27:56.158Z,10.56
2018-05-07T02:29:02.385Z,10.54
2018-05-07T02:30:08.615Z,10.45
2018-05-07T02:31:14.922Z,10.42
2018-05-07T02:32:21.136Z,10.49
2018-05-07T02:33:27.379Z,10.44
2018-05-07T02:34:33.602Z,10.35
2018-05-07T02:35:39.843Z,10.42
2018-05-07T02:36:46.089Z,10.49
2018-05-07T02:37:52.363Z,10.55
2018-05-07T02:38:58.592Z,10.64
2018-05-07T02:40:04.813Z,10.70
2018-05-07T02:41:11.073Z,10.65
2018-05-07T02:42:16.815Z,10.66
2018-05-07T02:43:23.572Z,10.64
2018-05-07T02:44:29.808Z,10.62
2018-05-07T02:45:36.052Z,10.64
2018-05-07T02:46:42.313Z,10.72
2018-05-07T02:47:48.549Z,10.74
2018-05-07T02:48:54.811Z,10.74
2018-05-07T02:50:01.057Z,10.73
2018-05-07T02:51:08.293Z,10.76
2018-05-07T02:52:14.538Z,10.85
2018-05-07T02:53:20.811Z,10.91
2018-05-07T02:54:26.062Z,10.92
2018-05-07T02:55:32.324Z,10.90
2018-05-07T02:56:38.558Z,10.92
2018-05-07T02:57:44.809Z,10.82
2018-05-07T02:58:51.105Z,10.84
2018-05-07T02:59:57.322Z,10.85
2018-05-07T03:01:03.569Z,10.76
2018-05-07T03:02:09.827Z,10.69
2018-05-07T03:03:16.071Z,10.70
2018-05-07T03:04:22.352Z,10.70
2018-05-07T03:05:28.578Z,10.63
2018-05-07T03:06:34.830Z,10.62
2018-05-07T03:07:41.079Z,10.69
2018-05-07T03:08:47.398Z,10.72
2018-05-07T03:09:53.591Z,10.75
2018-05-07T03:10:59.832Z,10.77
2018-05-07T03:12:06.141Z,10.85
2018-05-07T03:13:12.335Z,10.85
2018-05-07T03:14:18.629Z,10.86
2018-05-07T03:15:24.841Z,10.81
2018-05-07T03:16:31.112Z,10.74
2018-05-07T03:17:37.419Z,10.69
2018-05-07T03:18:43.631Z,10.69
2018-05-07T03:19:49.876Z,10.71
2018-05-07T03:20:56.131Z,10.71
2018-05-07T03:22:02.387Z,10.69
2018-05-07T03:23:08.637Z,10.61
2018-05-07T03:24:14.912Z,10.56
2018-05-07T03:25:21.139Z,10.52
2018-05-07T03:26:27.397Z,10.52
2018-05-07T03:27:33.680Z,10.48
2018-05-07T03:28:39.903Z,10.38
2018-05-07T03:29:46.194Z,10.37
2018-05-07T03:30:52.411Z,10.33
2018-05-07T03:31:58.679Z,10.33
2018-05-07T03:33:04.931Z,10.32
2018-05-07T03:34:11.193Z,10.39
2018-05-07T03:35:17.429Z,10.36
2018-05-07T03:36:23.668Z,10.33
2018-05-07T03:37:29.936Z,10.32
2018-05-07T03:38:36.164Z,10.36
2018-05-07T03:39:42.459Z,10.40
2018-05-07T03:40:48.671Z,10.41
2018-05-07T03:41:54.924Z,10.39
2018-05-07T03:43:01.172Z,10.40
2018-05-07T03:44:07.420Z,10.37
2018-05-07T03:45:13.697Z,10.33
2018-05-07T03:46:19.927Z,10.21
2018-05-07T03:47:26.181Z,10.20
2018-05-07T03:48:32.435Z,10.21
2018-05-07T03:49:38.695Z,10.28
2018-05-07T03:50:44.963Z,10.31
2018-05-07T03:51:51.201Z,10.38
2018-05-07T03:52:57.443Z,10.41
2018-05-07T03:54:03.706Z,10.41
2018-05-07T03:55:09.977Z,10.45
2018-05-07T03:56:16.200Z,10.46
2018-05-07T03:57:22.455Z,10.58
2018-05-07T03:58:28.704Z,10.58
2018-05-07T03:59:35.044Z,10.53
2018-05-07T04:00:41.232Z,10.55
2018-05-07T04:01:47.467Z,10.58
2018-05-07T04:02:53.704Z,10.55
2018-05-07T04:03:59.959Z,10.56
2018-05-07T04:05:06.224Z,10.53
2018-05-07T04:06:12.497Z,10.51
2018-05-07T04:07:18.776Z,10.48
2018-05-07T04:08:24.973Z,10.48
2018-05-07T04:09:31.252Z,10.49
2018-05-07T04:10:37.513Z,10.54
2018-05-07T04:11:43.773Z,10.64
2018-05-07T04:12:50.027Z,10.75
2018-05-07T04:13:56.266Z,10.82
2018-05-07T04:15:02.535Z,10.91
2018-05-07T04:16:08.803Z,11.03
2018-05-07T04:17:15.038Z,11.02
2018-05-07T04:18:21.381Z,11.05
2018-05-07T04:19:27.576Z,11.11
2018-05-07T04:20:33.821Z,11.17
2018-05-07T04:21:41.099Z,11.22
2018-05-07T04:22:46.361Z,11.31
2018-05-07T04:23:52.631Z,11.38
2018-05-07T04:24:58.877Z,11.41
2018-05-07T04:26:05.166Z,11.36
2018-05-07T04:27:11.424Z,11.32
2018-05-07T04:28:17.685Z,11.34
2018-05-07T04:29:23.952Z,11.36
2018-05-07T04:30:30.224Z,11.36
2018-05-07T04:31:36.532Z,11.39
2018-05-07T04:32:42.767Z,11.61
2018-05-07T04:33:49.117Z,11.73
2018-05-07T04:34:55.384Z,11.75
2018-05-07T04:36:01.596Z,11.73
2018-05-07T04:37:07.883Z,11.75
2018-05-07T04:38:14.123Z,11.81
2018-05-07T04:39:20.398Z,11.79
2018-05-07T04:40:26.672Z,11.77
2018-05-07T04:41:33.980Z,11.80
2018-05-07T04:42:39.245Z,11.85
2018-05-07T04:43:45.521Z,11.86
2018-05-07T04:44:51.388Z,11.85
2018-05-07T04:45:58.081Z,11.85
2018-05-07T04:47:04.389Z,11.96
2018-05-07T04:48:10.642Z,12.03
2018-05-07T04:49:16.940Z,12.03
2018-05-07T04:50:23.216Z,12.01
2018-05-07T04:51:29.527Z,11.97
2018-05-07T04:52:35.830Z,11.93
2018-05-07T04:53:42.080Z,11.95
2018-05-07T04:54:48.378Z,11.90
2018-05-07T04:55:54.652Z,11.85
2018-05-07T04:57:00.970Z,11.84
2018-05-07T04:58:07.231Z,11.93
2018-05-07T04:59:13.516Z,12.01
2018-05-07T05:00:19.807Z,12.04
2018-05-07T05:01:26.089Z,12.12
2018-05-07T05:02:33.402Z,12.17
2018-05-07T05:03:38.667Z,12.20
2018-05-07T05:04:44.959Z,12.23
2018-05-07T05:05:51.264Z,12.27
2018-05-07T05:06:57.541Z,12.31
2018-05-07T05:08:03.872Z,12.35
2018-05-07T05:09:10.153Z,12.41
2018-05-07T05:10:16.424Z,12.51
2018-05-07T05:11:23.708Z,12.61
2018-05-07T05:12:29.045Z,12.62
2018-05-07T05:13:35.377Z,12.66
2018-05-07T05:14:41.622Z,12.67
2018-05-07T05:15:47.956Z,12.72
2018-05-07T05:16:54.227Z,12.76
2018-05-07T05:18:00.566Z,12.77
2018-05-07T05:19:06.854Z,12.75
2018-05-07T05:20:13.157Z,12.74
2018-05-07T05:21:19.463Z,12.75
2018-05-07T05:22:25.765Z,12.76
2018-05-07T05:23:32.086Z,12.75
2018-05-07T05:24:38.385Z,12.77
2018-05-07T05:25:44.692Z,12.75
2018-05-07T05:26:51.023Z,12.73
2018-05-07T05:27:57.405Z,12.74
2018-05-07T05:29:03.632Z,12.75
2018-05-07T05:30:09.948Z,12.77
2018-05-07T05:31:16.256Z,12.78
2018-05-07T05:32:22.569Z,12.87
2018-05-07T05:33:28.913Z,12.91
2018-05-07T05:34:35.211Z,12.96
2018-05-07T05:35:41.523Z,13.04
2018-05-07T05:36:47.850Z,13.09
2018-05-07T05:37:54.174Z,13.12
2018-05-07T05:39:00.463Z,13.10
2018-05-07T05:40:06.779Z,13.10
2018-05-07T05:41:13.109Z,13.13
2018-05-07T05:42:19.420Z,13.16
2018-05-07T05:43:25.772Z,13.19
2018-05-07T05:44:32.075Z,13.27
2018-05-07T05:45:38.386Z,13.32
2018-05-07T05:46:44.714Z,13.34
2018-05-07T05:47:52.036Z,13.41
2018-05-07T05:48:56.906Z,13.43
2018-05-07T05:50:03.842Z,13.46
2018-05-07T05:51:10.024Z,13.50
2018-05-07T05:52:16.353Z,13.54
2018-05-07T05:53:22.678Z,13.57
2018-05-07T05:54:29.027Z,13.63
2018-05-07T05:55:35.384Z,13.66
2018-05-07T05:56:41.673Z,13.68
2018-05-07T05:57:48.003Z,13.68
2018-05-07T05:58:54.360Z,13.68
2018-05-07T06:00:00.711Z,13.70
2018-05-07T06:01:07.001Z,13.73
2018-05-07T06:02:13.379Z,13.77
2018-05-07T06:03:19.673Z,13.81
2018-05-07T06:04:26.037Z,13.84
2018-05-07T06:05:32.360Z,13.85
2018-05-07T06:06:38.715Z,13.85
2018-05-07T06:07:45.037Z,13.91
2018-05-07T06:08:51.389Z,13.97
2018-05-07T06:09:57.746Z,14.01
2018-05-07T06:11:04.081Z,14.04
2018-05-07T06:12:10.428Z,14.05
2018-05-07T06:13:16.773Z,14.09
2018-05-07T06:14:23.157Z,14.14
2018-05-07T06:15:29.452Z,14.15
2018-05-07T06:16:35.815Z,14.18
2018-05-07T06:17:41.657Z,14.22
2018-05-07T06:18:48.498Z,14.23
2018-05-07T06:19:55.863Z,14.28
2018-05-07T06:21:01.205Z,14.32
2018-05-07T06:22:07.550Z,14.37
2018-05-07T06:23:13.906Z,14.38
2018-05-07T06:24:20.263Z,14.41
2018-05-07T06:25:26.649Z,14.48
2018-05-07T06:26:32.974Z,14.51
2018-05-07T06:27:39.393Z,14.52
2018-05-07T06:28:45.742Z,14.55
2018-05-07T06:29:52.067Z,14.57
2018-05-07T06:30:58.381Z,14.57
2018-05-07T06:32:04.755Z,14.56
2018-05-07T06:33:11.119Z,14.61
2018-05-07T06:34:17.570Z,14.66
2018-05-07T06:35:23.855Z,14.70
2018-05-07T06:36:31.180Z,14.70
2018-05-07T06:37:36.545Z,14.77
2018-05-07T06:38:42.920Z,14.84
2018-05-07T06:39:49.411Z,14.82
2018-05-07T06:40:55.649Z,14.80
2018-05-07T06:42:02.007Z,14.83
2018-05-07T06:43:08.382Z,14.81
2018-05-07T06:44:14.261Z,14.78
2018-05-07T06:45:21.154Z,14.80
2018-05-07T06:46:28.487Z,14.85
2018-05-07T06:47:33.881Z,14.91
2018-05-07T06:48:40.239Z,14.96
2018-05-07T06:49:46.636Z,14.96
2018-05-07T06:50:52.982Z,14.98
2018-05-07T06:51:59.379Z,14.99
2018-05-07T06:53:05.748Z,15.05
2018-05-07T06:54:12.118Z,15.10
2018-05-07T06:55:18.528Z,15.11
2018-05-07T06:56:24.876Z,15.13
2018-05-07T06:57:31.262Z,15.14
2018-05-07T06:58:37.652Z,15.18
2018-05-07T06:59:44.053Z,15.25
2018-05-07T07:00:50.429Z,15.26
2018-05-07T07:01:56.816Z,15.27
2018-05-07T07:03:02.830Z,15.31
2018-05-07T07:04:09.759Z,15.36
2018-05-07T07:05:16.011Z,15.41
2018-05-07T07:06:22.364Z,15.40
2018-05-07T07:07:28.795Z,15.39
2018-05-07T07:08:35.331Z,15.38
2018-05-07T07:09:41.573Z,15.39
2018-05-07T07:10:48.935Z,15.45
2018-05-07T07:11:54.335Z,15.46
2018-05-07T07:13:00.751Z,15.35
2018-05-07T07:14:07.147Z,15.25
2018-05-07T07:15:13.602Z,15.27
2018-05-07T07:16:19.979Z,15.33
2018-05-07T07:17:27.377Z,15.43
2018-05-07T07:18:32.798Z,15.51
2018-05-07T07:19:39.243Z,15.53
2018-05-07T07:20:45.669Z,15.56
2018-05-07T07:21:52.128Z,15.65
2018-05-07T07:22:58.469Z,15.78
2018-05-07T07:24:04.900Z,15.80
2018-05-07T07:25:11.400Z,15.78
2018-05-07T07:26:17.744Z,15.78
2018-05-07T07:27:24.174Z,15.80
2018-05-07T07:28:30.609Z,15.80
2018-05-07T07:29:37.047Z,15.83
2018-05-07T07:30:43.502Z,15.84
2018-05-07T07:31:49.895Z,15.80
2018-05-07T07:32:56.347Z,15.86
2018-05-07T07:34:02.818Z,15.90
2018-05-07T07:35:09.230Z,16.02
2018-05-07T07:36:15.661Z,16.09
2018-05-07T07:37:22.090Z,16.17
2018-05-07T07:38:28.585Z,16.30
2018-05-07T07:39:35.089Z,16.35
2018-05-07T07:40:41.442Z,16.40
2018-05-07T07:41:47.370Z,16.39
2018-05-07T07:42:54.320Z,16.37
2018-05-07T07:44:00.769Z,16.34
2018-05-07T07:45:07.248Z,16.30
2018-05-07T07:46:13.683Z,16.35
2018-05-07T07:47:20.178Z,16.53
2018-05-07T07:48:26.572Z,16.66
2018-05-07T07:49:33.035Z,16.71
2018-05-07T07:50:39.503Z,16.62
2018-05-07T07:51:45.936Z,16.62
2018-05-07T07:52:52.418Z,16.76
2018-05-07T07:53:58.864Z,16.75
2018-05-07T07:55:05.403Z,16.71
2018-05-07T07:56:11.781Z,16.73
2018-05-07T07:57:18.241Z,16.72
2018-05-07T07:58:24.707Z,16.70
2018-05-07T07:59:31.155Z,16.70
2018-05-07T08:00:37.644Z,16.78
2018-05-07T08:01:43.660Z,16.83
2018-05-07T08:02:51.067Z,17.00
2018-05-07T08:03:57.369Z,17.11
2018-05-07T08:05:03.985Z,17.17
2018-05-07T08:06:09.938Z,17.23
2018-05-07T08:10:10.928Z,17.39
2018-05-07T08:11:17.489Z,17.51
2018-05-07T08:12:23.494Z,17.61
2018-05-07T08:13:30.293Z,17.67
2018-05-07T08:14:36.762Z,17.64
2018-05-07T08:15:43.245Z,17.59
2018-05-07T08:16:49.693Z,17.62
2018-05-07T08:17:56.168Z,17.62
2018-05-07T08:19:02.616Z,17.59
2018-05-07T08:20:09.106Z,17.58
2018-05-07T08:21:15.556Z,17.60
2018-05-07T08:22:22.045Z,17.62
2018-05-07T08:23:28.494Z,17.64
2018-05-07T08:24:34.476Z,17.65
2018-05-07T08:25:41.465Z,17.75
2018-05-07T08:26:47.922Z,17.90
2018-05-07T08:27:54.376Z,17.99
2018-05-07T08:29:00.857Z,18.03
2018-05-07T08:30:07.407Z,18.12
2018-05-07T08:31:14.849Z,18.20
2018-05-07T08:32:20.294Z,18.17
2018-05-07T08:33:26.819Z,18.17
2018-05-07T08:34:33.238Z,18.17
2018-05-07T08:35:39.741Z,18.30
2018-05-07T08:36:46.227Z,18.39
2018-05-07T08:37:52.686Z,18.51
2018-05-07T08:38:59.159Z,18.53
2018-05-07T08:40:05.663Z,18.50
2018-05-07T08:41:12.129Z,18.50
2018-05-07T08:42:18.643Z,18.57
2018-05-07T08:43:25.106Z,18.58
2018-05-07T08:44:31.615Z,18.59
2018-05-07T08:45:38.130Z,18.64
2018-05-07T08:46:44.619Z,18.65
2018-05-07T08:47:51.080Z,18.60
2018-05-07T08:48:57.571Z,18.55
2018-05-07T08:50:04.091Z,18.53
2018-05-07T08:51:10.736Z,18.54
2018-05-07T08:52:17.106Z,18.61
2018-05-07T08:53:23.580Z,18.81
2018-05-07T08:54:30.073Z,19.01
2018-05-07T08:55:36.593Z,19.10
2018-05-07T08:56:43.124Z,19.14
2018-05-07T08:57:49.582Z,19.16
2018-05-07T08:59:00.057Z,19.13
2018-05-07T09:00:11.047Z,19.11
2018-05-07T09:01:17.415Z,19.16
2018-05-07T09:02:23.933Z,19.22
2018-05-07T09:03:31.452Z,19.25
2018-05-07T09:04:37.012Z,19.34
2018-05-07T09:05:43.501Z,19.34
2018-05-07T09:06:49.989Z,19.34
2018-05-07T09:07:56.174Z,19.30
2018-05-07T09:09:03.012Z,19.32
2018-05-07T09:10:09.553Z,19.37
2018-05-07T09:11:16.056Z,19.44
2018-05-07T09:12:22.590Z,19.48
2018-05-07T09:13:29.101Z,19.54
2018-05-07T09:14:35.928Z,19.65
2018-05-07T09:15:42.402Z,19.71
2018-05-07T09:16:48.693Z,19.75
2018-05-07T09:17:56.909Z,19.79
2018-05-07T09:19:01.748Z,19.83
2018-05-07T09:20:08.264Z,19.91
2018-05-07T09:21:14.836Z,20.04
2018-05-07T09:22:21.387Z,20.12
2018-05-07T09:23:27.863Z,20.21
2018-05-07T09:24:33.904Z,20.27
2018-05-07T09:25:40.974Z,20.31
2018-05-07T09:26:47.486Z,20.37
2018-05-07T09:27:54.036Z,20.41
2018-05-07T09:29:00.576Z,20.45
2018-05-07T09:30:07.120Z,20.46
2018-05-07T09:31:13.696Z,20.46
2018-05-07T09:32:20.206Z,20.46
2018-05-07T09:33:26.760Z,20.45
2018-05-07T09:34:33.388Z,20.54
2018-05-07T09:35:40.290Z,20.68
2018-05-07T09:36:46.432Z,20.78
2018-05-07T09:37:52.977Z,20.83
2018-05-07T09:38:59.054Z,20.85
2018-05-07T09:40:06.095Z,20.86
2018-05-07T09:41:13.000Z,20.89
2018-05-07T09:42:19.212Z,20.85
2018-05-07T09:43:26.789Z,20.79
2018-05-07T09:44:33.465Z,20.72
2018-05-07T09:45:38.933Z,20.63
2018-05-07T09:46:45.496Z,20.57
2018-05-07T09:47:53.092Z,20.67
2018-05-07T09:48:58.626Z,20.71
2018-05-07T09:50:05.177Z,20.77
2018-05-07T09:51:11.765Z,20.86
2018-05-07T09:52:17.828Z,20.93
2018-05-07T09:53:24.897Z,21.09
2018-05-07T09:54:32.707Z,21.20
2018-05-07T09:55:37.577Z,21.28
2018-05-07T09:56:44.673Z,21.31
2018-05-07T09:57:51.213Z,21.33
2018-05-07T09:58:58.783Z,21.32
2018-05-07T10:00:04.354Z,21.25
2018-05-07T10:01:10.972Z,21.14
2018-05-07T10:02:17.024Z,21.13
2018-05-07T10:03:23.625Z,21.22
2018-05-07T10:04:30.191Z,21.26
2018-05-07T10:05:37.296Z,21.19
2018-05-07T10:06:43.864Z,21.26
2018-05-07T10:07:49.950Z,21.20
2018-05-07T10:08:57.032Z,21.09
2018-05-07T10:10:03.633Z,21.12
2018-05-07T10:11:10.236Z,21.23
2018-05-07T10:12:16.810Z,21.36
2018-05-07T10:13:23.393Z,21.52
2018-05-07T10:14:29.965Z,21.58
2018-05-07T10:15:36.594Z,21.53
2018-05-07T10:16:43.151Z,21.56
2018-05-07T10:17:49.747Z,21.69
2018-05-07T10:18:56.356Z,21.82
2018-05-07T10:20:02.941Z,21.87
2018-05-07T10:21:09.579Z,21.90
2018-05-07T10:22:15.668Z,21.89
2018-05-07T10:23:22.743Z,21.88
2018-05-07T10:24:29.387Z,21.92
2018-05-07T10:25:35.968Z,21.95
2018-05-07T10:26:42.057Z,21.90
2018-05-07T10:27:49.159Z,22.04
2018-05-07T10:28:55.766Z,22.17
2018-05-07T10:30:02.351Z,22.21
2018-05-07T10:31:09.446Z,22.23
2018-05-07T10:32:15.577Z,22.26
2018-05-07T10:33:22.173Z,22.31
2018-05-07T10:34:28.848Z,22.36
2018-05-07T10:35:34.913Z,22.44
2018-05-07T10:36:42.019Z,22.55
2018-05-07T10:37:48.621Z,22.60
2018-05-07T10:38:55.246Z,22.65
2018-05-07T10:40:01.844Z,22.73
2018-05-07T10:41:08.499Z,22.77
2018-05-07T10:42:15.078Z,22.74
2018-05-07T10:43:22.699Z,22.69
2018-05-07T10:44:28.321Z,22.64
2018-05-07T10:45:34.991Z,22.52
2018-05-07T10:46:41.584Z,22.43
2018-05-07T10:47:48.183Z,22.42
2018-05-07T10:48:54.815Z,22.51
2018-05-07T10:50:01.435Z,22.63
2018-05-07T10:51:08.095Z,22.71
2018-05-07T10:52:14.696Z,22.73
2018-05-07T10:53:21.372Z,22.75
2018-05-07T10:54:27.947Z,22.86
2018-05-07T10:55:34.629Z,22.95
2018-05-07T10:56:41.261Z,23.09
2018-05-07T10:57:47.842Z,23.17
2018-05-07T10:58:54.480Z,23.22
2018-05-07T11:00:01.118Z,23.26
2018-05-07T11:01:07.767Z,23.21
2018-05-07T11:02:14.391Z,23.16
2018-05-07T11:03:21.039Z,23.03
2018-05-07T11:04:27.686Z,22.88
2018-05-07T11:05:34.373Z,22.87
2018-05-07T11:06:41.007Z,22.95
2018-05-07T11:07:47.667Z,22.97
2018-05-07T11:08:54.405Z,23.02
2018-05-07T11:10:01.222Z,22.98
2018-05-07T11:11:08.116Z,22.90
2018-05-07T11:12:14.540Z,22.90
2018-05-07T11:13:22.033Z,23.04
2018-05-07T11:14:29.062Z,23.17
2018-05-07T11:15:36.188Z,23.34
2018-05-07T11:16:43.412Z,23.44
2018-05-07T11:17:50.457Z,23.53
2018-05-07T11:18:57.686Z,23.53
2018-05-07T11:20:04.927Z,23.46
2018-05-07T11:21:12.237Z,23.50
2018-05-07T11:22:19.549Z,23.53
2018-05-07T11:23:26.897Z,23.58
2018-05-07T11:24:34.313Z,23.65
2018-05-07T11:25:41.755Z,23.64
2018-05-07T11:26:49.182Z,23.67
2018-05-07T11:27:56.649Z,23.72
2018-05-07T11:29:03.655Z,23.77
2018-05-07T11:30:11.667Z,23.71
2018-05-07T11:31:19.273Z,23.74
2018-05-07T11:32:26.860Z,23.83
2018-05-07T11:33:34.375Z,23.91
2018-05-07T11:34:41.506Z,23.96
2018-05-07T11:35:49.632Z,23.86
2018-05-07T11:36:57.244Z,23.84
2018-05-07T11:38:05.884Z,23.83
2018-05-07T11:39:12.753Z,23.77
2018-05-07T11:40:19.752Z,23.83
2018-05-07T11:41:27.451Z,23.92
2018-05-07T11:42:35.637Z,24.03
2018-05-07T11:43:42.871Z,24.24
2018-05-07T11:44:51.079Z,24.29
2018-05-07T11:45:58.866Z,24.35
2018-05-07T11:47:06.606Z,24.30
2018-05-07T11:48:14.393Z,24.28
2018-05-07T11:49:22.174Z,24.29
2018-05-07T11:50:29.971Z,24.39
2018-05-07T11:51:38.801Z,24.53
2018-05-07T11:52:45.132Z,24.54
2018-05-07T11:53:52.956Z,24.52
2018-05-07T11:55:01.381Z,24.59
2018-05-07T11:56:09.154Z,24.61
2018-05-07T11:57:17.003Z,24.60
2018-05-07T11:58:24.379Z,24.62
2018-05-07T11:59:32.740Z,24.47
2018-05-07T12:00:40.611Z,24.35
2018-05-07T12:01:48.026Z,24.32
2018-05-07T12:02:56.388Z,24.29
2018-05-07T12:04:03.779Z,24.36
2018-05-07T12:05:11.655Z,24.29
2018-05-07T12:06:20.071Z,24.36
2018-05-07T12:07:28.432Z,24.45
2018-05-07T12:08:35.819Z,24.44
2018-05-07T12:09:43.724Z,24.40
2018-05-07T12:10:51.648Z,24.47
2018-05-07T12:11:59.527Z,24.61
2018-05-07T12:13:07.419Z,24.79
2018-05-07T12:14:14.841Z,24.94
2018-05-07T12:15:22.769Z,25.05
2018-05-07T12:16:30.725Z,25.09
2018-05-07T12:17:39.132Z,25.15
2018-05-07T12:18:47.081Z,25.17
2018-05-07T12:19:55.031Z,25.30
2018-05-07T12:21:03.003Z,25.41
2018-05-07T12:22:10.951Z,25.47
2018-05-07T12:23:18.996Z,25.53
2018-05-07T12:24:26.883Z,25.55
2018-05-07T12:25:34.846Z,25.52
2018-05-07T12:26:42.853Z,25.50
2018-05-07T12:27:50.815Z,25.51
2018-05-07T12:28:58.809Z,25.59
2018-05-07T12:30:06.802Z,25.72
2018-05-07T12:31:14.878Z,25.87
2018-05-07T12:32:22.813Z,25.88
2018-05-07T12:33:30.317Z,26.01
2018-05-07T12:34:38.820Z,26.01
2018-05-07T12:35:46.839Z,26.00
2018-05-07T12:36:54.377Z,26.04
2018-05-07T12:38:02.850Z,26.03
2018-05-07T12:39:11.850Z,26.05
2018-05-07T12:40:18.869Z,26.13
2018-05-07T12:41:26.893Z,26.20
2018-05-07T12:42:34.885Z,26.29
2018-05-07T12:43:42.922Z,26.26
2018-05-07T12:44:50.940Z,26.11
2018-05-07T12:45:58.482Z,26.09
2018-05-07T12:47:06.980Z,26.15
2018-05-07T12:48:14.508Z,26.16
2018-05-07T12:49:23.032Z,26.10
2018-05-07T12:50:31.039Z,26.17
2018-05-07T12:51:38.588Z,26.18
2018-05-07T12:52:47.169Z,26.30
2018-05-07T12:53:55.109Z,26.53
2018-05-07T12:55:03.143Z,26.64
2018-05-07T12:56:11.198Z,26.73
2018-05-07T12:57:19.210Z,26.72
2018-05-07T12:58:27.227Z,26.47
2018-05-07T12:59:34.766Z,26.30
2018-05-07T13:00:42.787Z,26.15
2018-05-07T13:01:50.838Z,26.03
2018-05-07T13:02:59.383Z,25.93
2018-05-07T13:04:07.374Z,26.11
2018-05-07T13:05:15.369Z,26.17
2018-05-07T13:06:23.398Z,26.15
2018-05-07T13:07:31.380Z,26.10
2018-05-07T13:08:39.392Z,25.95
2018-05-07T13:09:47.389Z,25.94
2018-05-07T13:10:54.832Z,26.08
2018-05-07T13:12:04.332Z,25.95
2018-05-07T13:13:11.400Z,26.10
2018-05-07T13:14:19.226Z,26.12
2018-05-07T13:15:26.688Z,26.25
2018-05-07T13:16:34.646Z,26.34
2018-05-07T13:17:43.577Z,26.32
2018-05-07T13:18:50.515Z,26.23
2018-05-07T13:19:58.453Z,26.13
2018-05-07T13:21:06.909Z,26.19
2018-05-07T13:22:14.301Z,26.20
2018-05-07T13:23:22.726Z,26.21
2018-05-07T13:24:30.652Z,26.30
2018-05-07T13:25:38.634Z,26.32
2018-05-07T13:26:46.545Z,26.50
2018-05-07T13:27:54.435Z,26.59
2018-05-07T13:29:02.380Z,26.71
2018-05-07T13:30:10.311Z,26.75
2018-05-07T13:31:18.280Z,26.76
2018-05-07T13:32:26.207Z,26.84
2018-05-07T13:33:34.172Z,26.84
2018-05-07T13:34:42.130Z,26.57
2018-05-07T13:35:49.602Z,26.39
2018-05-07T13:36:58.085Z,26.34
2018-05-07T13:38:05.534Z,26.19
2018-05-07T13:39:14.013Z,26.17
2018-05-07T13:40:21.990Z,26.25
2018-05-07T13:41:29.997Z,26.43
2018-05-07T13:42:37.963Z,26.46
2018-05-07T13:43:45.954Z,26.43
2018-05-07T13:44:53.951Z,26.44
2018-05-07T13:46:01.976Z,26.51
2018-05-07T13:47:10.013Z,26.53
2018-05-07T13:48:17.510Z,26.19
2018-05-07T13:49:26.029Z,26.08
2018-05-07T13:50:34.032Z,26.05
2018-05-07T13:51:42.073Z,26.20
2018-05-07T13:52:49.576Z,26.42
2018-05-07T13:53:58.065Z,26.44
2018-05-07T13:55:06.080Z,26.46
2018-05-07T13:56:14.102Z,26.46
2018-05-07T13:57:22.077Z,26.50
2018-05-07T13:58:30.089Z,26.43
2018-05-07T13:59:37.571Z,26.49
2018-05-07T14:00:46.066Z,26.62
2018-05-07T14:01:53.582Z,26.66
2018-05-07T14:03:02.053Z,26.74
2018-05-07T14:04:10.036Z,26.85
2018-05-07T14:05:18.012Z,27.05
2018-05-07T14:06:25.525Z,27.16
2018-05-07T14:07:33.960Z,27.13
2018-05-07T14:08:41.927Z,27.08
2018-05-07T14:09:49.410Z,26.89
2018-05-07T14:10:57.879Z,26.73
2018-05-07T14:12:05.861Z,26.59
2018-05-07T14:13:13.795Z,26.59
2018-05-07T14:14:21.744Z,26.70
2018-05-07T14:15:29.187Z,26.62
2018-05-07T14:16:37.662Z,26.39
2018-05-07T14:17:45.575Z,26.28
2018-05-07T14:18:53.513Z,26.43
2018-05-07T14:20:01.462Z,26.50
2018-05-07T14:21:08.897Z,26.66
2018-05-07T14:22:17.347Z,27.07
2018-05-07T14:23:25.244Z,27.28
2018-05-07T14:24:33.196Z,27.48